createdAt,value
2023-04-27T00:02:09.952Z,87.82
2023-04-27T00:04:37.544Z,88.28
2023-04-27T00:07:04.173Z,88.03
2023-04-27T00:09:30.652Z,87.77
2023-04-27T00:11:57.052Z,87.97
2023-04-27T00:14:23.574Z,88.94
2023-04-27T00:16:50.157Z,89.04
2023-04-27T00:19:16.864Z,89.24
2023-04-27T00:21:43.316Z,88.94
2023-04-27T00:24:09.780Z,89.10
2023-04-27T00:26:36.361Z,88.34
2023-04-27T00:29:02.810Z,89.21
2023-04-27T00:31:29.287Z,89.54
2023-04-27T00:33:55.863Z,89.32
2023-04-27T00:36:23.231Z,89.05
2023-04-27T00:38:51.608Z,88.56
2023-04-27T00:41:18.117Z,88.17
2023-04-27T00:43:45.923Z,88.34
2023-04-27T00:46:13.697Z,88.54
2023-04-27T00:48:41.140Z,88.92
2023-04-27T00:51:07.611Z,88.76
2023-04-27T00:53:35.941Z,89.56
2023-04-27T00:56:03.486Z,89.13
2023-04-27T00:58:30.227Z,89.57
2023-04-27T01:00:57.006Z,89.34
2023-04-27T01:03:23.660Z,89.49
2023-04-27T01:05:50.512Z,89.15
2023-04-27T01:08:23.192Z,90.13
2023-04-27T01:10:50.663Z,89.40
2023-04-27T01:13:18.184Z,89.40
2023-04-27T01:15:45.348Z,88.34
2023-04-27T01:18:11.949Z,88.40
2023-04-27T01:20:38.565Z,89.04
2023-04-27T01:23:05.067Z,88.50
2023-04-27T01:25:31.896Z,88.33
2023-04-27T01:27:58.308Z,89.87
2023-04-27T01:30:25.058Z,89.68
2023-04-27T01:32:54.197Z,89.85
2023-04-27T01:35:22.687Z,89.84
2023-04-27T01:37:50.293Z,90.54
2023-04-27T01:40:16.921Z,89.89
2023-04-27T01:42:43.374Z,89.74
2023-04-27T01:45:11.015Z,89.77
2023-04-27T01:47:37.537Z,89.93
2023-04-27T01:50:04.240Z,88.99
2023-04-27T01:52:30.695Z,89.18
2023-04-27T01:54:57.263Z,89.88
2023-04-27T01:57:23.747Z,89.18
2023-04-27T01:59:50.371Z,88.91
2023-04-27T02:02:16.775Z,89.52
2023-04-27T02:04:43.728Z,89.12
2023-04-27T02:07:10.937Z,89.28
2023-04-27T02:09:37.569Z,89.57
2023-04-27T02:12:04.218Z,90.74
2023-04-27T02:14:30.706Z,90.73
2023-04-27T02:16:57.144Z,90.71
2023-04-27T02:19:23.590Z,89.91
2023-04-27T02:21:50.766Z,89.43
2023-04-27T02:24:18.224Z,90.36
2023-04-27T02:26:44.685Z,90.20
2023-04-27T02:29:11.490Z,90.25
2023-04-27T02:31:38.605Z,90.60
2023-04-27T02:34:05.060Z,90.44
2023-04-27T02:36:32.341Z,90.90
2023-04-27T02:39:00.556Z,90.95
2023-04-27T02:41:28.480Z,91.19
2023-04-27T02:43:54.848Z,91.41
2023-04-27T02:46:21.354Z,90.60
2023-04-27T02:48:47.853Z,91.22
2023-04-27T02:51:14.321Z,90.74
2023-04-27T02:53:41.925Z,91.09
2023-04-27T02:56:10.116Z,91.38
2023-04-27T02:58:37.150Z,91.40
2023-04-27T03:01:03.700Z,91.84
2023-04-27T03:03:30.278Z,91.34
2023-04-27T03:05:57.684Z,91.90
2023-04-27T03:08:26.234Z,91.52
2023-04-27T03:10:52.688Z,92.07
2023-04-27T03:13:19.235Z,91.94
2023-04-27T03:15:47.007Z,91.85
2023-04-27T03:18:13.461Z,92.85
2023-04-27T03:20:45.146Z,92.29
2023-04-27T03:23:12.571Z,92.47
2023-04-27T03:25:39.056Z,91.32
2023-04-27T03:28:05.577Z,92.89
2023-04-27T03:30:31.971Z,91.98
2023-04-27T03:32:58.637Z,93.14
2023-04-27T03:35:28.100Z,92.46
2023-04-27T03:37:54.557Z,92.91
2023-04-27T03:40:21.696Z,92.52
2023-04-27T03:42:50.661Z,92.86
2023-04-27T03:45:19.142Z,92.75
2023-04-27T03:47:45.704Z,93.24
2023-04-27T03:50:15.251Z,93.14
2023-04-27T03:52:41.862Z,93.02
2023-04-27T03:55:14.525Z,92.54
2023-04-27T03:57:41.512Z,92.79
2023-04-27T04:00:12.113Z,91.76
2023-04-27T04:02:42.152Z,92.33
2023-04-27T04:05:09.246Z,92.57
2023-04-27T04:07:35.999Z,92.49
2023-04-27T04:10:03.474Z,92.46
2023-04-27T04:12:30.512Z,92.95
2023-04-27T04:14:59.680Z,93.46
2023-04-27T04:17:26.490Z,93.26
2023-04-27T04:19:52.968Z,92.21
2023-04-27T04:22:21.372Z,93.52
2023-04-27T04:24:47.893Z,93.88
2023-04-27T04:27:14.360Z,93.45
2023-04-27T04:29:40.834Z,93.65
2023-04-27T04:32:07.471Z,94.15
2023-04-27T04:34:34.376Z,93.25
2023-04-27T04:37:00.795Z,93.40
2023-04-27T04:39:31.824Z,93.39
2023-04-27T04:41:58.289Z,93.64
2023-04-27T04:44:24.876Z,94.10
2023-04-27T04:46:51.888Z,93.69
2023-04-27T04:49:18.438Z,93.01
2023-04-27T04:51:45.580Z,93.41
2023-04-27T04:54:12.340Z,93.70
2023-04-27T04:56:44.371Z,93.15
2023-04-27T04:59:11.225Z,93.50
2023-04-27T05:01:37.821Z,93.64
2023-04-27T05:04:04.594Z,93.03
2023-04-27T05:06:32.291Z,92.75
2023-04-27T05:08:58.726Z,92.68
2023-04-27T05:11:25.399Z,92.05
2023-04-27T05:13:51.891Z,86.59
2023-04-27T05:16:18.446Z,82.72
2023-04-27T05:18:45.039Z,82.48
2023-04-27T05:21:20.620Z,80.64
2023-04-27T05:23:47.022Z,76.92
2023-04-27T05:26:17.061Z,73.11
2023-04-27T05:28:43.854Z,69.65
2023-04-27T05:31:10.837Z,66.06
2023-04-27T05:33:37.321Z,65.05
2023-04-27T05:36:04.091Z,63.38
2023-04-27T05:38:30.527Z,62.65
2023-04-27T05:40:58.988Z,61.64
2023-04-27T05:43:26.189Z,61.15
2023-04-27T05:45:53.473Z,60.85
2023-04-27T05:48:21.147Z,60.05
2023-04-27T05:50:48.622Z,61.72
2023-04-27T05:53:15.067Z,59.98
2023-04-27T05:55:42.828Z,59.69
2023-04-27T05:58:09.491Z,58.79
2023-04-27T06:00:38.314Z,58.64
2023-04-27T06:03:05.103Z,57.51
2023-04-27T06:05:31.804Z,57.97
2023-04-27T06:07:58.432Z,57.31
2023-04-27T06:10:24.886Z,56.78
2023-04-27T06:12:51.423Z,58.08
2023-04-27T06:15:18.037Z,58.61
2023-04-27T06:17:46.124Z,59.69
2023-04-27T06:20:15.348Z,60.19
2023-04-27T06:22:41.882Z,61.49
2023-04-27T06:25:08.750Z,62.19
2023-04-27T06:27:35.461Z,61.78
2023-04-27T06:30:04.818Z,61.65
2023-04-27T06:32:32.127Z,61.14
2023-04-27T06:35:04.528Z,61.49
2023-04-27T06:37:33.338Z,61.46
2023-04-27T06:39:59.929Z,62.03
2023-04-27T06:42:27.297Z,62.40
2023-04-27T06:44:56.386Z,62.83
2023-04-27T06:47:23.745Z,62.50
2023-04-27T06:49:50.894Z,61.91
2023-04-27T06:52:17.415Z,62.30
2023-04-27T06:54:43.882Z,64.43
2023-04-27T06:57:10.798Z,66.42
2023-04-27T06:59:37.224Z,67.32
2023-04-27T07:02:03.625Z,67.80
2023-04-27T07:04:30.257Z,68.79
2023-04-27T07:06:57.252Z,68.37
2023-04-27T07:09:27.618Z,68.72
2023-04-27T07:11:55.227Z,67.78
2023-04-27T07:14:22.282Z,67.87
2023-04-27T07:16:48.693Z,68.12
2023-04-27T07:19:15.415Z,67.42
2023-04-27T07:21:41.927Z,66.96
2023-04-27T07:24:08.555Z,65.94
2023-04-27T07:26:35.048Z,65.41
2023-04-27T07:29:04.220Z,65.45
2023-04-27T07:31:35.512Z,64.66
2023-04-27T07:34:03.056Z,64.03
2023-04-27T07:36:29.462Z,63.85
2023-04-27T07:38:58.704Z,63.39
2023-04-27T07:41:25.215Z,62.00
2023-04-27T07:43:52.402Z,61.51
2023-04-27T07:46:19.048Z,61.40
2023-04-27T07:48:45.584Z,60.52
2023-04-27T07:51:16.172Z,61.46
2023-04-27T07:53:42.690Z,61.20
2023-04-27T07:56:10.122Z,59.48
2023-04-27T07:58:37.946Z,59.21
2023-04-27T08:01:04.476Z,60.01
2023-04-27T08:03:31.651Z,59.57
2023-04-27T08:05:58.818Z,60.73
2023-04-27T08:08:25.563Z,58.84
2023-04-27T08:10:52.014Z,59.02
2023-04-27T08:13:18.543Z,58.39
2023-04-27T08:15:44.958Z,57.33
2023-04-27T08:18:11.554Z,57.44
2023-04-27T08:20:38.034Z,55.67
2023-04-27T08:23:04.470Z,56.81
2023-04-27T08:25:32.215Z,55.89
2023-04-27T08:27:58.654Z,56.28
2023-04-27T08:30:25.269Z,56.51
2023-04-27T08:32:51.773Z,56.39
2023-04-27T08:35:18.352Z,54.09
2023-04-27T08:37:45.547Z,54.23
2023-04-27T08:40:12.375Z,53.84
2023-04-27T08:42:41.980Z,54.87
2023-04-27T08:45:09.132Z,53.71
2023-04-27T08:47:42.880Z,53.86
2023-04-27T08:50:12.238Z,53.11
2023-04-27T08:52:38.756Z,53.93
2023-04-27T08:55:07.422Z,52.66
2023-04-27T08:57:33.958Z,51.89
2023-04-27T09:00:01.031Z,51.02
2023-04-27T09:02:29.660Z,51.37
2023-04-27T09:04:56.933Z,51.90
2023-04-27T09:07:23.740Z,51.87
2023-04-27T09:09:50.484Z,52.22
2023-04-27T09:12:21.703Z,51.64
2023-04-27T09:14:58.518Z,50.82
2023-04-27T09:17:30.139Z,52.43
2023-04-27T09:20:09.044Z,52.20
2023-04-27T09:22:52.869Z,52.24
2023-04-27T09:25:31.395Z,51.07
2023-04-27T09:27:59.610Z,50.41
2023-04-27T09:30:29.648Z,49.12
2023-04-27T09:33:04.258Z,49.32
2023-04-27T09:35:33.144Z,48.84
2023-04-27T09:38:03.102Z,48.61
2023-04-27T09:40:31.131Z,48.82
2023-04-27T09:43:03.263Z,48.19
2023-04-27T09:45:30.466Z,47.68
2023-04-27T09:47:58.261Z,48.07
2023-04-27T09:50:24.802Z,48.79
2023-04-27T09:52:51.512Z,46.81
2023-04-27T09:55:24.520Z,45.88
2023-04-27T09:58:20.800Z,47.54
2023-04-27T10:00:59.014Z,46.87
2023-04-27T10:03:38.129Z,46.96
2023-04-27T10:06:07.596Z,45.94
2023-04-27T10:08:36.252Z,46.49
2023-04-27T10:11:16.196Z,46.99
2023-04-27T10:13:54.408Z,47.22
2023-04-27T10:16:22.149Z,46.64
2023-04-27T10:18:54.044Z,47.42
2023-04-27T10:21:22.270Z,46.47
2023-04-27T10:23:51.713Z,45.53
2023-04-27T10:26:25.805Z,45.42
2023-04-27T10:29:09.167Z,45.22
2023-04-27T10:31:36.118Z,45.11
2023-04-27T10:34:07.168Z,45.60
2023-04-27T10:36:40.815Z,45.53
2023-04-27T10:39:39.672Z,44.81
2023-04-27T10:42:11.466Z,45.78
2023-04-27T10:44:38.998Z,44.72
2023-04-27T10:47:19.878Z,45.56
2023-04-27T10:49:46.407Z,44.73
2023-04-27T10:52:13.276Z,44.03
2023-04-27T10:54:45.302Z,44.03
2023-04-27T10:57:13.098Z,43.62
2023-04-27T10:59:53.815Z,44.77
2023-04-27T11:02:28.070Z,45.47
2023-04-27T11:04:56.319Z,43.36
2023-04-27T11:07:28.070Z,44.01
2023-04-27T11:09:55.331Z,41.40
2023-04-27T11:12:21.995Z,42.18
2023-04-27T11:14:48.519Z,42.60
2023-04-27T11:17:14.981Z,42.29
2023-04-27T11:19:47.800Z,41.99
2023-04-27T11:22:18.452Z,42.58
2023-04-27T11:24:52.445Z,42.84
2023-04-27T11:27:22.100Z,41.44
2023-04-27T11:29:48.597Z,41.85
2023-04-27T11:32:25.692Z,41.85
2023-04-27T11:34:54.764Z,40.81
2023-04-27T11:37:27.651Z,41.12
2023-04-27T11:39:55.454Z,41.27
2023-04-27T11:42:26.508Z,40.64
2023-04-27T11:45:06.666Z,41.79
2023-04-27T11:47:35.863Z,41.86
2023-04-27T11:50:05.546Z,42.00
2023-04-27T11:52:33.926Z,42.17
2023-04-27T11:55:01.835Z,41.34
2023-04-27T11:57:30.466Z,41.01
2023-04-27T12:00:00.243Z,41.70
2023-04-27T12:02:31.596Z,41.17
2023-04-27T12:04:59.810Z,41.38
2023-04-27T12:07:26.942Z,41.06
2023-04-27T12:09:53.514Z,40.56
2023-04-27T12:12:22.326Z,40.60
2023-04-27T12:14:49.932Z,39.15
2023-04-27T12:17:16.557Z,38.88
2023-04-27T12:19:43.105Z,39.82
2023-04-27T12:22:09.690Z,40.44
2023-04-27T12:24:37.095Z,40.84
2023-04-27T12:27:04.368Z,40.00
2023-04-27T12:29:32.097Z,39.93
2023-04-27T12:31:59.146Z,39.52
2023-04-27T12:34:26.040Z,40.13
2023-04-27T12:36:52.417Z,40.39
2023-04-27T12:39:20.900Z,40.14
2023-04-27T12:41:48.981Z,39.76
2023-04-27T12:44:16.894Z,39.00
2023-04-27T12:46:44.028Z,38.84
2023-04-27T12:49:12.472Z,39.79
2023-04-27T12:51:41.333Z,39.50
2023-04-27T12:54:09.533Z,39.20
2023-04-27T12:56:36.491Z,38.65
2023-04-27T12:59:02.912Z,37.92
2023-04-27T13:01:31.204Z,37.72
2023-04-27T13:04:02.781Z,39.06
2023-04-27T13:06:31.217Z,38.45
2023-04-27T13:08:59.341Z,37.24
2023-04-27T13:11:26.924Z,37.50
2023-04-27T13:13:54.916Z,38.33
2023-04-27T13:16:22.666Z,38.20
2023-04-27T13:18:51.933Z,37.85
2023-04-27T13:21:18.989Z,36.43
2023-04-27T13:23:45.623Z,37.36
2023-04-27T13:26:12.780Z,37.29
2023-04-27T13:28:40.183Z,37.07
2023-04-27T13:31:06.716Z,37.82
2023-04-27T13:33:41.900Z,38.25
2023-04-27T13:36:10.195Z,38.23
2023-04-27T13:38:36.894Z,37.68
2023-04-27T13:41:04.025Z,37.70
2023-04-27T13:43:31.188Z,37.14
2023-04-27T13:46:00.750Z,36.87
2023-04-27T13:48:28.369Z,37.13
2023-04-27T13:50:55.723Z,38.47
2023-04-27T13:53:25.763Z,37.12
2023-04-27T13:55:57.106Z,37.93
2023-04-27T13:58:26.102Z,37.50
2023-04-27T14:00:53.145Z,37.47
2023-04-27T14:03:20.114Z,36.75
2023-04-27T14:05:49.332Z,38.26
2023-04-27T14:08:15.897Z,37.62
2023-04-27T14:10:43.048Z,36.09
2023-04-27T14:13:09.585Z,36.82
2023-04-27T14:15:37.322Z,37.10
2023-04-27T14:18:08.457Z,37.05
2023-04-27T14:20:35.896Z,37.09
2023-04-27T14:23:03.995Z,36.62
2023-04-27T14:25:35.584Z,35.95
2023-04-27T14:28:06.360Z,36.58
2023-04-27T14:30:34.406Z,36.63
2023-04-27T14:33:02.078Z,36.85
2023-04-27T14:35:28.735Z,37.44
2023-04-27T14:37:57.100Z,37.60
2023-04-27T14:40:24.355Z,37.15
2023-04-27T14:42:51.908Z,36.98
2023-04-27T14:45:18.907Z,36.57
2023-04-27T14:47:46.547Z,37.05
2023-04-27T14:50:13.212Z,36.63
2023-04-27T14:52:39.824Z,36.11
2023-04-27T14:55:07.040Z,36.37
2023-04-27T14:57:33.671Z,37.45
2023-04-27T15:00:00.781Z,37.38
2023-04-27T15:02:27.464Z,36.42
2023-04-27T15:04:54.047Z,34.92
2023-04-27T15:07:21.378Z,36.03
2023-04-27T15:09:47.959Z,36.15
2023-04-27T15:12:14.514Z,36.37
2023-04-27T15:14:40.993Z,36.39
2023-04-27T15:17:07.848Z,35.90
2023-04-27T15:19:34.625Z,37.19
2023-04-27T15:22:02.655Z,37.06
2023-04-27T15:24:29.231Z,36.97
2023-04-27T15:26:56.080Z,36.46
2023-04-27T15:29:22.601Z,36.62
2023-04-27T15:31:49.146Z,36.41
2023-04-27T15:34:16.008Z,36.55
2023-04-27T15:36:42.527Z,36.36
2023-04-27T15:39:10.209Z,36.65
2023-04-27T15:41:36.966Z,36.02
2023-04-27T15:44:04.984Z,37.11
2023-04-27T15:46:31.643Z,37.14
2023-04-27T15:48:58.879Z,37.03
2023-04-27T15:51:25.380Z,37.74
2023-04-27T15:53:52.008Z,36.91
2023-04-27T15:56:18.609Z,37.22
2023-04-27T15:58:45.178Z,36.94
2023-04-27T16:01:11.896Z,37.48
2023-04-27T16:03:38.652Z,38.22
2023-04-27T16:06:06.513Z,36.63
2023-04-27T16:08:33.195Z,37.38
2023-04-27T16:11:00.377Z,37.54
2023-04-27T16:13:28.337Z,37.90
2023-04-27T16:15:55.086Z,38.13
2023-04-27T16:18:21.573Z,38.62
2023-04-27T16:20:48.126Z,39.14
2023-04-27T16:23:15.120Z,39.52
2023-04-27T16:25:41.578Z,38.56
2023-04-27T16:28:08.942Z,38.97
2023-04-27T16:30:37.562Z,38.56
2023-04-27T16:33:04.134Z,39.38
2023-04-27T16:35:30.628Z,38.81
2023-04-27T16:37:57.208Z,39.63
2023-04-27T16:40:23.686Z,39.38
2023-04-27T16:42:50.394Z,39.80
2023-04-27T16:45:16.880Z,40.25
2023-04-27T16:47:45.777Z,39.82
2023-04-27T16:50:12.310Z,40.32
2023-04-27T16:52:39.149Z,39.83
2023-04-27T16:55:06.357Z,41.02
2023-04-27T16:57:32.780Z,39.85
2023-04-27T17:00:00.877Z,40.21
2023-04-27T17:02:27.518Z,40.20
2023-04-27T17:04:54.664Z,40.66
2023-04-27T17:07:21.343Z,39.70
2023-04-27T17:09:48.060Z,40.12
2023-04-27T17:12:16.596Z,39.60
2023-04-27T17:14:43.254Z,39.79
2023-04-27T17:17:10.379Z,39.67
2023-04-27T17:19:36.937Z,40.21
2023-04-27T17:22:04.246Z,39.89
2023-04-27T17:24:30.840Z,40.48
2023-04-27T17:26:57.314Z,40.29
2023-04-27T17:29:23.854Z,40.77
2023-04-27T17:31:50.772Z,41.00
2023-04-27T17:34:17.584Z,40.91
2023-04-27T17:36:44.271Z,41.51
2023-04-27T17:39:12.806Z,41.55
2023-04-27T17:41:39.939Z,42.04
2023-04-27T17:44:06.571Z,42.40
2023-04-27T17:46:33.379Z,42.52
2023-04-27T17:49:00.170Z,42.71
2023-04-27T17:51:27.887Z,43.47
2023-04-27T17:53:54.460Z,42.59
2023-04-27T17:56:21.030Z,43.01
2023-04-27T17:58:48.566Z,44.09
2023-04-27T18:10:56.376Z,43.74
2023-04-27T18:38:39.786Z,45.86
2023-04-27T18:41:07.181Z,45.72
2023-04-27T18:43:37.261Z,45.70
2023-04-27T18:46:04.542Z,45.92
2023-04-27T18:48:31.409Z,46.42
2023-04-27T18:50:58.224Z,46.45
2023-04-27T18:53:27.228Z,46.64
2023-04-27T18:55:53.768Z,46.69
2023-04-27T18:58:20.398Z,47.00
2023-04-27T19:00:46.922Z,47.30
2023-04-27T19:03:13.859Z,47.79
2023-04-27T19:05:43.173Z,48.06
2023-04-27T19:08:10.291Z,47.42
2023-04-27T19:10:37.424Z,47.82
2023-04-27T19:13:04.810Z,47.97
2023-04-27T19:15:31.299Z,48.36
2023-04-27T19:18:02.699Z,48.47
2023-04-27T19:20:37.073Z,48.08
2023-04-27T19:23:05.067Z,48.51
2023-04-27T19:25:31.759Z,48.40
2023-04-27T19:27:58.651Z,48.36
2023-04-27T19:30:25.351Z,49.01
2023-04-27T19:32:52.836Z,48.78
2023-04-27T19:35:20.423Z,48.58
2023-04-27T19:37:47.048Z,49.17
2023-04-27T19:40:13.684Z,49.40
2023-04-27T19:42:40.380Z,48.97
2023-04-27T19:45:07.486Z,48.69
2023-04-27T19:47:34.116Z,49.00
2023-04-27T19:50:00.864Z,49.14
2023-04-27T19:52:27.547Z,49.58
2023-04-27T19:54:54.796Z,49.77
2023-04-27T19:57:21.725Z,49.42
2023-04-27T19:59:48.360Z,49.65
2023-04-27T20:02:15.314Z,49.18
2023-04-27T20:04:42.272Z,49.41
2023-04-27T20:07:09.042Z,48.78
2023-04-27T20:09:35.866Z,49.70
2023-04-27T20:12:03.656Z,49.79
2023-04-27T20:14:33.632Z,50.17
2023-04-27T20:17:00.292Z,49.21
2023-04-27T20:19:26.890Z,49.74
2023-04-27T20:21:53.665Z,50.18
2023-04-27T20:24:20.452Z,49.70
2023-04-27T20:26:47.143Z,49.76
2023-04-27T20:29:13.678Z,49.51
2023-04-27T20:31:41.326Z,49.34
2023-04-27T20:34:07.882Z,49.70
2023-04-27T20:36:34.517Z,50.09
2023-04-27T20:39:01.282Z,49.35
2023-04-27T20:41:28.498Z,49.59
2023-04-27T20:43:55.449Z,50.30
2023-04-27T20:46:22.232Z,49.69
2023-04-27T20:48:48.937Z,50.06
2023-04-27T20:51:15.662Z,50.58
2023-04-27T20:53:42.318Z,50.01
2023-04-27T20:56:09.181Z,50.06
2023-04-27T20:58:36.151Z,49.97
2023-04-27T21:01:02.673Z,49.66
2023-04-27T21:03:29.515Z,50.37
2023-04-27T21:05:56.351Z,49.87
2023-04-27T21:08:22.984Z,50.53
2023-04-27T21:10:49.718Z,50.90
2023-04-27T21:13:16.229Z,51.52
2023-04-27T21:15:42.667Z,51.82
2023-04-27T21:18:15.986Z,51.19
2023-04-27T21:20:50.306Z,51.02
2023-04-27T21:23:17.057Z,52.03
2023-04-27T21:25:45.030Z,52.00
2023-04-27T21:28:11.722Z,52.09
2023-04-27T21:30:38.483Z,52.57
2023-04-27T21:33:05.235Z,52.43
2023-04-27T21:35:32.268Z,52.75
2023-04-27T21:37:59.338Z,52.54
2023-04-27T21:40:26.117Z,52.61
2023-04-27T21:42:53.979Z,52.95
2023-04-27T21:45:21.003Z,53.24
2023-04-27T21:47:48.272Z,52.75
2023-04-27T21:50:16.347Z,53.21
2023-04-27T21:52:42.858Z,53.71
2023-04-27T21:55:09.965Z,53.65
2023-04-27T21:57:36.788Z,53.55
2023-04-27T22:00:13.095Z,53.95
2023-04-27T22:02:42.488Z,53.93
2023-04-27T22:05:12.549Z,53.83
2023-04-27T22:07:38.983Z,54.80
2023-04-27T22:10:06.158Z,54.32
2023-04-27T22:12:33.363Z,54.46
2023-04-27T22:15:00.369Z,54.67
2023-04-27T22:17:27.682Z,54.07
2023-04-27T22:19:54.696Z,54.42
2023-04-27T22:22:21.247Z,54.58
2023-04-27T22:24:47.738Z,54.63
2023-04-27T22:27:14.218Z,55.01
2023-04-27T22:29:41.052Z,55.33
2023-04-27T22:32:11.178Z,55.09
2023-04-27T22:34:38.182Z,55.20
2023-04-27T22:37:04.709Z,55.79
2023-04-27T22:39:33.080Z,55.82
2023-04-27T22:41:59.854Z,55.71
2023-04-27T22:44:29.223Z,55.56
2023-04-27T22:46:56.480Z,54.98
2023-04-27T22:49:27.877Z,56.07
2023-04-27T22:51:57.838Z,56.22
2023-04-27T22:54:25.086Z,56.00
2023-04-27T22:56:51.863Z,55.99
2023-04-27T22:59:23.101Z,55.88
2023-04-27T23:01:49.876Z,56.51
2023-04-27T23:04:19.137Z,56.33
2023-04-27T23:06:46.430Z,56.11
2023-04-27T23:09:14.437Z,56.19
2023-04-27T23:11:41.516Z,56.67
2023-04-27T23:14:09.115Z,56.65
2023-04-27T23:16:36.105Z,56.89
2023-04-27T23:19:03.037Z,56.81
2023-04-27T23:21:29.620Z,56.84
2023-04-27T23:23:56.166Z,57.37
2023-04-27T23:26:22.614Z,56.91
2023-04-27T23:28:50.290Z,57.28
2023-04-27T23:31:17.062Z,56.57
2023-04-27T23:33:44.870Z,57.42
2023-04-27T23:36:12.716Z,57.02
2023-04-27T23:38:40.532Z,57.09
2023-04-27T23:41:08.444Z,57.50
2023-04-27T23:43:35.104Z,57.19
2023-04-27T23:46:03.465Z,57.30
2023-04-27T23:48:30.479Z,57.71
2023-04-27T23:51:01.392Z,57.13
2023-04-27T23:53:28.480Z,56.75
2023-04-27T23:55:56.938Z,57.46
2023-04-27T23:58:25.044Z,57.46
